Details From MUCC - Jardines Del Rey
To MUCM - Ignacio Agramonte Intl
Flight Number -
Tags Generated
Created
Modified
Stats Distance 68 nm / 126 km
Max Altitude 0 ft / 0 m
Waypoints 2
Social Downloads 7
Likes 0
Share VATSIM

Download

Looking for another format? Having issues loading an existing format? Contact us
Advertisement - Login to hide

Notes

Generated

Route

MUCC MUCM

ID Type Via Altitude Latitude Longitude Leg Dist Tot Dist Heading (true) Name
O MUCC APT - 0 ft / 0 m 22.45654˚ -78.34238˚ - 0 nm - -
O MUCM APT - 0 ft / 0 m 21.41546˚ -77.86090˚ 68 nm 68 nm 157° / 157° -

Altitude Profile

Advertisement - Login to hide

MUCC

Details ICAO MUCC
Name JARDINES DEL REY
Region Cuba
Timezone America/Havana (UTC-5.0)
Stats Elevation 13 ft / 4 m (AMSL)
Location 22.460945° -78.328602°
Runways 1
Magnetic Variation 7.316° W

METAR

MUCC 120550Z 02010KT 9000 SCT020 21/15 Q1018

Decode

TAF

Not found

Departure Runways

ID Width Length Bearing (true) Bearing (mag) Surface Threshold Offset Overrun Length
08 148 ft / 45 m 9,835 ft / 2,998 m 70.91° 78.23° Asphalt 0 ft / 0 m 0 ft / 0 m
26 148 ft / 45 m 9,835 ft / 2,998 m 250.92° 258.24° Asphalt 0 ft / 0 m 0 ft / 0 m

MUCM

Details ICAO MUCM (CMW)
Name IGNACIO AGRAMONTE INTL
Region Cuba
Timezone America/Havana (UTC-5.0)
Stats Elevation 413 ft / 126 m (AMSL)
Location 21.420427° -77.847437°
Runways 1
Magnetic Variation 7.442° W

METAR

MUCM 120600Z 01006KT 9000 NSC 20/16 Q1017

Decode

TAF

Not found

Destination Runways

ID Width Length Bearing (true) Bearing (mag) Surface Threshold Offset Overrun Length
07 148 ft / 45 m 9,838 ft / 2,999 m 68.39° 75.83° Asphalt 0 ft / 0 m 195 ft / 59 m
25 148 ft / 45 m 9,838 ft / 2,999 m 248.40° 255.84° Asphalt 0 ft / 0 m 195 ft / 59 m